createdAt,value
2023-05-17T00:00:33.056Z,8.00
2023-05-17T00:03:01.210Z,8.00
2023-05-17T00:05:30.861Z,8.00
2023-05-17T00:07:58.964Z,7.90
2023-05-17T00:10:27.133Z,7.90
2023-05-17T00:12:55.363Z,7.80
2023-05-17T00:15:23.593Z,7.60
2023-05-17T00:17:51.769Z,7.40
2023-05-17T00:20:20.021Z,7.10
2023-05-17T00:22:49.627Z,6.90
2023-05-17T00:25:17.724Z,6.70
2023-05-17T00:27:45.821Z,6.60
2023-05-17T00:30:14.593Z,6.60
2023-05-17T00:32:42.670Z,6.50
2023-05-17T00:35:11.200Z,6.30
2023-05-17T00:37:39.397Z,6.20
2023-05-17T00:40:11.989Z,6.10
2023-05-17T00:42:40.088Z,6.00
2023-05-17T00:45:09.913Z,5.90
2023-05-17T00:47:38.157Z,5.80
2023-05-17T00:50:08.203Z,5.70
2023-05-17T00:52:37.608Z,5.60
2023-05-17T00:55:06.486Z,5.60
2023-05-17T00:57:36.691Z,5.60
2023-05-17T01:00:06.468Z,5.50
2023-05-17T01:02:34.689Z,5.50
2023-05-17T01:05:03.144Z,5.40
2023-05-17T01:07:31.312Z,5.30
2023-05-17T01:10:00.008Z,5.30
2023-05-17T01:12:51.942Z,5.30
2023-05-17T01:15:28.801Z,5.10
2023-05-17T01:18:06.469Z,5.10
2023-05-17T01:20:39.030Z,4.90
2023-05-17T01:23:37.059Z,4.70
2023-05-17T01:26:11.708Z,4.50
2023-05-17T01:28:44.906Z,4.40
2023-05-17T01:31:14.307Z,4.50
2023-05-17T01:33:42.977Z,4.60
2023-05-17T01:36:11.180Z,4.60
2023-05-17T01:38:39.235Z,4.60
2023-05-17T01:41:17.721Z,4.70
2023-05-17T01:43:52.513Z,4.70
2023-05-17T01:46:29.369Z,4.80
2023-05-17T01:49:13.340Z,4.90
2023-05-17T01:51:49.799Z,4.90
2023-05-17T01:54:24.751Z,4.90
2023-05-17T01:56:59.339Z,5.00
2023-05-17T01:59:32.641Z,5.00
2023-05-17T02:02:06.245Z,5.10
2023-05-17T02:04:34.704Z,5.20
2023-05-17T02:07:03.251Z,5.30
2023-05-17T02:09:31.775Z,5.40
2023-05-17T02:11:59.861Z,5.50
2023-05-17T02:14:29.354Z,5.60
2023-05-17T02:16:57.490Z,5.70
2023-05-17T02:19:25.726Z,5.70
2023-05-17T02:21:53.917Z,5.70
2023-05-17T02:24:21.984Z,5.70
2023-05-17T02:26:50.069Z,5.70
2023-05-17T02:29:18.408Z,5.60
2023-05-17T02:31:47.892Z,5.60
2023-05-17T02:34:16.027Z,5.70
2023-05-17T02:36:45.105Z,5.70
2023-05-17T02:39:13.469Z,5.80
2023-05-17T02:41:41.646Z,5.90
2023-05-17T02:44:09.768Z,5.90
2023-05-17T02:46:38.538Z,6.00
2023-05-17T02:49:08.252Z,6.10
2023-05-17T02:51:36.351Z,6.20
2023-05-17T02:54:04.595Z,6.30
2023-05-17T02:56:32.975Z,6.40
2023-05-17T02:59:01.371Z,6.40
2023-05-17T03:01:29.737Z,6.40
2023-05-17T03:03:58.062Z,6.50
2023-05-17T03:06:27.683Z,6.50
2023-05-17T03:08:55.791Z,6.40
2023-05-17T03:11:24.070Z,6.30
2023-05-17T03:13:52.260Z,6.20
2023-05-17T03:16:20.768Z,6.20
2023-05-17T03:18:48.985Z,6.00
2023-05-17T03:21:17.311Z,5.80
2023-05-17T03:23:46.835Z,5.60
2023-05-17T03:26:14.964Z,5.50
2023-05-17T03:28:43.022Z,5.50
2023-05-17T03:31:11.146Z,5.40
2023-05-17T03:33:39.346Z,5.40
2023-05-17T03:36:08.221Z,5.30
2023-05-17T03:38:36.331Z,5.10
2023-05-17T03:41:06.246Z,5.00
2023-05-17T03:43:34.408Z,5.00
2023-05-17T03:46:02.622Z,4.90
2023-05-17T03:48:31.415Z,4.80
2023-05-17T03:51:00.794Z,4.70
2023-05-17T03:53:29.037Z,4.80
2023-05-17T03:55:57.064Z,4.80
2023-05-17T03:58:26.585Z,4.80
2023-05-17T04:00:54.632Z,4.70
2023-05-17T04:03:22.663Z,4.70
2023-05-17T04:05:50.925Z,4.60
2023-05-17T04:08:19.017Z,4.50
2023-05-17T04:10:47.118Z,4.50
2023-05-17T04:13:15.162Z,4.50
2023-05-17T04:15:44.513Z,4.50
2023-05-17T04:18:12.666Z,4.40
2023-05-17T04:20:40.903Z,4.40
2023-05-17T04:23:09.935Z,4.50
2023-05-17T04:25:38.002Z,4.40
2023-05-17T04:28:06.275Z,4.40
2023-05-17T04:30:34.299Z,4.50
2023-05-17T04:33:03.927Z,4.50
2023-05-17T04:35:32.090Z,4.60
2023-05-17T04:38:00.171Z,4.80
2023-05-17T04:40:28.404Z,4.90
2023-05-17T04:42:56.526Z,5.00
2023-05-17T04:45:25.014Z,5.20
2023-05-17T04:47:53.745Z,5.40
2023-05-17T04:50:23.575Z,5.60
2023-05-17T04:52:51.675Z,5.60
2023-05-17T04:55:19.757Z,5.70
2023-05-17T04:57:47.829Z,5.80
2023-05-17T05:00:17.228Z,6.00
2023-05-17T05:02:46.538Z,6.10
2023-05-17T05:05:14.764Z,6.20
2023-05-17T05:07:44.256Z,6.40
2023-05-17T05:10:12.529Z,6.50
2023-05-17T05:12:40.611Z,6.80
2023-05-17T05:15:10.333Z,7.50
2023-05-17T05:17:38.434Z,8.20
2023-05-17T05:20:08.820Z,8.90
2023-05-17T05:22:36.958Z,9.70
2023-05-17T05:25:07.964Z,10.30
2023-05-17T05:27:36.326Z,10.70
2023-05-17T05:30:06.391Z,11.30
2023-05-17T05:32:34.615Z,11.90
2023-05-17T05:35:02.744Z,12.10
2023-05-17T05:37:30.926Z,12.30
2023-05-17T05:39:59.098Z,12.60
2023-05-17T05:42:29.632Z,12.90
2023-05-17T05:44:57.711Z,12.90
2023-05-17T05:47:25.818Z,12.80
2023-05-17T05:49:53.893Z,12.70
2023-05-17T05:52:21.964Z,12.80
2023-05-17T05:54:50.404Z,13.30
2023-05-17T05:57:18.472Z,13.80
2023-05-17T05:59:47.919Z,14.00
2023-05-17T06:02:17.238Z,14.20
2023-05-17T06:04:46.074Z,14.20
2023-05-17T06:07:14.316Z,14.50
2023-05-17T06:09:42.468Z,14.90
2023-05-17T06:12:10.783Z,14.80
2023-05-17T06:14:38.879Z,15.40
2023-05-17T06:17:08.324Z,16.00
2023-05-17T06:19:37.720Z,16.00
2023-05-17T06:22:06.240Z,15.10
2023-05-17T06:24:34.358Z,15.20
2023-05-17T06:27:02.730Z,15.90
2023-05-17T06:29:30.876Z,16.30
2023-05-17T06:31:59.852Z,16.90
2023-05-17T06:34:29.345Z,17.80
2023-05-17T06:36:57.386Z,17.60
2023-05-17T06:39:26.065Z,17.80
2023-05-17T06:41:57.166Z,17.30
2023-05-17T06:44:26.426Z,17.90
2023-05-17T06:46:54.534Z,18.00
2023-05-17T06:49:22.579Z,18.10
2023-05-17T06:51:51.990Z,18.40
2023-05-17T06:54:20.529Z,18.30
2023-05-17T06:56:48.808Z,17.40
2023-05-17T06:59:16.897Z,16.40
2023-05-17T07:01:44.980Z,15.60
2023-05-17T07:04:13.278Z,14.80
2023-05-17T07:06:41.488Z,14.30
2023-05-17T07:09:10.954Z,13.70
2023-05-17T07:11:39.283Z,13.00
2023-05-17T07:14:07.413Z,12.60
2023-05-17T07:16:35.933Z,12.20
2023-05-17T07:19:04.363Z,12.00
2023-05-17T07:21:33.446Z,11.90
2023-05-17T07:24:01.562Z,12.70
2023-05-17T07:26:31.818Z,13.60
2023-05-17T07:28:59.912Z,15.10
2023-05-17T07:31:27.985Z,16.10
2023-05-17T07:33:56.116Z,17.20
2023-05-17T07:36:24.265Z,17.40
2023-05-17T07:38:52.350Z,16.60
2023-05-17T07:41:22.514Z,15.80
2023-05-17T07:43:51.952Z,15.50
2023-05-17T07:46:20.113Z,15.00
2023-05-17T07:48:48.300Z,14.60
2023-05-17T07:51:16.583Z,14.10
2023-05-17T07:53:44.665Z,14.60
2023-05-17T07:56:12.844Z,16.60
2023-05-17T07:58:41.261Z,18.50
2023-05-17T08:01:10.837Z,18.10
2023-05-17T08:03:39.529Z,16.10
2023-05-17T08:06:08.061Z,14.90
2023-05-17T08:08:36.203Z,14.20
2023-05-17T08:11:04.323Z,13.70
2023-05-17T08:13:32.452Z,13.50
2023-05-17T08:16:12.882Z,13.40
2023-05-17T08:18:44.778Z,14.60
2023-05-17T08:21:13.073Z,16.40
2023-05-17T08:23:42.676Z,17.90
2023-05-17T08:26:12.487Z,19.10
2023-05-17T08:28:40.665Z,19.50
2023-05-17T08:31:08.866Z,20.30
2023-05-17T08:33:36.992Z,21.00
2023-05-17T08:36:08.330Z,20.80
2023-05-17T08:38:37.389Z,20.30
2023-05-17T08:41:05.763Z,19.20
2023-05-17T08:43:34.082Z,18.10
2023-05-17T08:46:04.180Z,17.10
2023-05-17T08:48:36.869Z,16.30
2023-05-17T08:51:07.524Z,15.80
2023-05-17T08:53:36.712Z,15.90
2023-05-17T08:56:07.824Z,15.70
2023-05-17T08:58:52.370Z,15.40
2023-05-17T09:01:26.873Z,15.30
2023-05-17T09:03:56.481Z,15.50
2023-05-17T09:06:26.386Z,15.40
2023-05-17T09:08:55.841Z,15.50
2023-05-17T09:11:28.923Z,15.60
2023-05-17T09:14:01.504Z,15.70
2023-05-17T09:16:30.672Z,15.50
2023-05-17T09:19:00.692Z,15.70
2023-05-17T09:21:32.255Z,16.20
2023-05-17T09:26:44.022Z,17.40
2023-05-17T09:29:13.498Z,16.60
2023-05-17T09:31:42.789Z,16.30
2023-05-17T09:34:11.393Z,16.20
2023-05-17T09:36:44.591Z,16.30
2023-05-17T09:39:15.181Z,16.30
2023-05-17T09:41:46.714Z,16.60
2023-05-17T09:44:16.683Z,16.70
2023-05-17T09:46:48.027Z,16.80
2023-05-17T09:49:18.397Z,16.90
2023-05-17T09:51:50.276Z,17.00
2023-05-17T09:54:18.562Z,17.00
2023-05-17T09:56:54.614Z,17.30
2023-05-17T09:59:28.409Z,17.90
2023-05-17T10:01:58.069Z,17.70
2023-05-17T10:04:31.904Z,17.10
2023-05-17T10:07:02.419Z,16.90
2023-05-17T10:09:35.618Z,17.40
2023-05-17T10:12:06.029Z,19.70
2023-05-17T10:14:37.995Z,21.00
2023-05-17T10:17:09.121Z,20.10
2023-05-17T10:19:38.233Z,19.40
2023-05-17T10:22:21.698Z,18.20
2023-05-17T10:24:52.820Z,17.30
2023-05-17T10:27:22.834Z,16.80
2023-05-17T10:29:54.533Z,17.50
2023-05-17T10:32:26.994Z,19.70
2023-05-17T10:35:10.605Z,21.00
2023-05-17T10:37:42.736Z,20.60
2023-05-17T10:40:14.239Z,21.60
2023-05-17T10:42:50.943Z,23.00
2023-05-17T10:45:22.228Z,22.60
2023-05-17T10:47:53.508Z,21.90
2023-05-17T10:50:26.334Z,20.80
2023-05-17T10:53:00.452Z,20.10
2023-05-17T10:55:40.738Z,19.40
2023-05-17T10:58:18.316Z,18.40
2023-05-17T11:00:48.899Z,18.20
2023-05-17T11:03:20.655Z,18.50
2023-05-17T11:06:24.441Z,18.80
2023-05-17T11:09:16.453Z,19.80
2023-05-17T11:12:06.851Z,20.30
2023-05-17T11:14:54.172Z,19.10
2023-05-17T11:17:25.113Z,19.40
2023-05-17T11:20:13.264Z,20.50
2023-05-17T11:22:44.168Z,21.30
2023-05-17T11:25:15.595Z,21.80
2023-05-17T11:27:48.784Z,22.10
2023-05-17T11:30:24.636Z,22.20
2023-05-17T11:32:55.393Z,22.30
2023-05-17T11:35:28.176Z,21.90
2023-05-17T11:38:15.527Z,22.00
2023-05-17T11:40:46.288Z,21.70
2023-05-17T11:43:16.764Z,21.80
2023-05-17T11:45:52.854Z,22.50
2023-05-17T11:48:22.706Z,22.70
2023-05-17T11:50:53.825Z,22.60
2023-05-17T11:53:22.578Z,22.60
2023-05-17T11:55:53.742Z,23.50
2023-05-17T11:58:27.671Z,23.50
2023-05-17T12:00:58.885Z,23.60
2023-05-17T12:03:28.995Z,24.10
2023-05-17T12:06:06.881Z,24.00
2023-05-17T12:08:36.455Z,22.70
2023-05-17T12:11:07.653Z,21.40
2023-05-17T12:13:36.735Z,19.90
2023-05-17T12:16:10.478Z,19.10
2023-05-17T12:18:40.077Z,19.30
2023-05-17T12:21:10.364Z,20.70
2023-05-17T12:23:41.140Z,22.00
2023-05-17T12:26:12.962Z,21.80
2023-05-17T12:28:44.957Z,21.30
2023-05-17T12:31:18.245Z,19.80
2023-05-17T12:33:48.204Z,18.90
2023-05-17T12:36:18.658Z,18.90
2023-05-17T12:38:48.731Z,18.70
2023-05-17T12:41:19.162Z,18.60
2023-05-17T12:43:47.583Z,20.20
2023-05-17T12:46:18.895Z,22.50
2023-05-17T12:48:48.593Z,23.50
2023-05-17T12:51:19.202Z,23.00
2023-05-17T12:53:52.133Z,21.10
2023-05-17T12:56:23.817Z,20.70
2023-05-17T12:59:12.429Z,21.40
2023-05-17T13:01:44.469Z,22.40
2023-05-17T13:04:14.308Z,23.20
2023-05-17T13:06:51.644Z,23.90
2023-05-17T13:09:23.787Z,23.90
2023-05-17T13:11:54.320Z,23.80
2023-05-17T13:14:37.180Z,23.80
2023-05-17T13:17:07.195Z,23.50
2023-05-17T13:19:36.224Z,21.80
2023-05-17T13:22:05.572Z,22.00
2023-05-17T13:24:36.822Z,23.20
2023-05-17T13:27:07.792Z,24.40
2023-05-17T13:29:40.701Z,24.50
2023-05-17T13:32:11.791Z,22.70
2023-05-17T13:34:41.151Z,22.60
2023-05-17T13:37:11.950Z,22.40
2023-05-17T13:39:41.360Z,21.90
2023-05-17T13:42:11.563Z,22.10
2023-05-17T13:44:39.801Z,22.40
2023-05-17T13:47:09.335Z,22.40
2023-05-17T13:49:37.779Z,22.30
2023-05-17T13:52:08.646Z,22.80
2023-05-17T13:54:36.905Z,22.40
2023-05-17T13:57:05.744Z,22.20
2023-05-17T13:59:35.433Z,21.90
2023-05-17T14:02:04.229Z,22.10
2023-05-17T14:04:32.329Z,21.70
2023-05-17T14:07:00.553Z,21.70
2023-05-17T14:09:30.558Z,21.20
2023-05-17T14:12:00.947Z,21.30
2023-05-17T14:14:31.370Z,21.70
2023-05-17T14:17:01.522Z,21.60
2023-05-17T14:19:30.045Z,21.70
2023-05-17T14:21:58.215Z,21.10
2023-05-17T14:24:26.292Z,21.20
2023-05-17T14:26:54.362Z,21.40
2023-05-17T14:29:22.511Z,21.30
2023-05-17T14:31:50.731Z,21.50
2023-05-17T14:34:20.356Z,21.80
2023-05-17T14:36:48.490Z,22.20
2023-05-17T14:39:17.536Z,22.00
2023-05-17T14:41:45.645Z,21.60
2023-05-17T14:44:13.747Z,21.60
2023-05-17T14:46:42.040Z,21.70
2023-05-17T14:49:10.193Z,21.80
2023-05-17T14:51:39.633Z,21.40
2023-05-17T14:54:07.767Z,21.00
2023-05-17T14:56:35.863Z,21.30
2023-05-17T14:59:04.040Z,22.00
2023-05-17T15:01:32.107Z,22.40
2023-05-17T15:04:00.345Z,22.70
2023-05-17T15:06:28.485Z,22.60
2023-05-17T15:08:58.524Z,22.10
2023-05-17T15:11:26.639Z,22.20
2023-05-17T15:13:54.752Z,21.90
2023-05-17T15:16:23.180Z,22.40
2023-05-17T15:18:52.264Z,22.40
2023-05-17T15:21:21.141Z,21.70
2023-05-17T15:23:50.655Z,21.20
2023-05-17T15:26:20.103Z,21.20
2023-05-17T15:28:49.951Z,21.20
2023-05-17T15:31:18.312Z,20.40
2023-05-17T15:33:46.541Z,20.20
2023-05-17T15:36:16.276Z,20.30
2023-05-17T15:38:44.540Z,20.60
2023-05-17T15:41:15.256Z,20.40
2023-05-17T15:43:45.009Z,20.30
2023-05-17T15:46:13.099Z,20.20
2023-05-17T15:48:41.312Z,20.20
2023-05-17T15:51:10.055Z,20.00
2023-05-17T15:53:38.321Z,20.00
2023-05-17T15:56:07.527Z,19.90
2023-05-17T15:58:35.594Z,19.60
2023-05-17T16:01:06.608Z,19.40
2023-05-17T16:03:35.315Z,19.60
2023-05-17T16:06:04.441Z,19.80
2023-05-17T16:08:32.737Z,19.80
2023-05-17T16:11:02.504Z,19.40
2023-05-17T16:13:30.953Z,19.40
2023-05-17T16:15:59.881Z,19.20
2023-05-17T16:18:31.158Z,19.10
2023-05-17T16:21:01.145Z,19.10
2023-05-17T16:23:29.198Z,19.00
2023-05-17T16:25:57.352Z,19.10
2023-05-17T16:28:25.816Z,18.80
2023-05-17T16:30:54.400Z,18.70
2023-05-17T16:33:22.703Z,18.70
2023-05-17T16:35:52.311Z,18.90
2023-05-17T16:38:20.378Z,19.00
2023-05-17T16:40:48.543Z,19.00
2023-05-17T16:43:16.709Z,18.90
2023-05-17T16:45:45.664Z,18.80
2023-05-17T16:48:15.071Z,18.70
2023-05-17T16:50:43.635Z,18.50
2023-05-17T16:53:13.214Z,18.40
2023-05-17T16:55:42.091Z,18.30
2023-05-17T16:58:10.395Z,18.20
2023-05-17T17:00:40.503Z,18.10
2023-05-17T17:03:09.814Z,18.20
2023-05-17T17:05:38.338Z,18.10
2023-05-17T17:08:06.728Z,18.10
2023-05-17T17:10:36.690Z,18.10
2023-05-17T17:13:04.939Z,17.90
2023-05-17T17:15:33.083Z,17.90
2023-05-17T17:18:01.172Z,17.80
2023-05-17T17:20:29.436Z,17.60
2023-05-17T17:22:57.687Z,17.50
2023-05-17T17:25:26.101Z,17.40
2023-05-17T17:27:55.789Z,17.40
2023-05-17T17:30:23.934Z,17.40
2023-05-17T17:32:52.206Z,17.40
2023-05-17T17:35:20.895Z,17.30
2023-05-17T17:37:48.964Z,17.20
2023-05-17T17:40:17.271Z,17.10
2023-05-17T17:42:45.794Z,17.20
2023-05-17T17:45:15.255Z,17.10
2023-05-17T17:47:43.361Z,17.00
2023-05-17T17:50:12.179Z,16.90
2023-05-17T17:52:40.349Z,16.90
2023-05-17T17:55:12.961Z,16.90
2023-05-17T17:57:41.624Z,16.80
2023-05-17T18:00:12.113Z,16.70
2023-05-17T18:02:41.891Z,16.50
2023-05-17T18:05:11.084Z,16.10
2023-05-17T18:07:39.867Z,15.80
2023-05-17T18:10:09.160Z,15.80
2023-05-17T18:12:37.454Z,15.70
2023-05-17T18:15:06.353Z,15.50
2023-05-17T18:17:34.688Z,15.30
2023-05-17T18:20:06.780Z,15.10
2023-05-17T18:22:35.406Z,14.90
2023-05-17T18:25:03.673Z,14.70
2023-05-17T18:27:31.781Z,14.60
2023-05-17T18:29:59.869Z,14.50
2023-05-17T18:32:28.021Z,14.40
2023-05-17T18:34:56.272Z,14.30
2023-05-17T18:37:25.890Z,14.20
2023-05-17T18:39:55.233Z,14.10
2023-05-17T18:42:24.964Z,14.00
2023-05-17T18:44:53.493Z,14.00
2023-05-17T18:47:23.479Z,14.00
2023-05-17T18:49:53.056Z,13.80
2023-05-17T18:52:22.460Z,13.70
2023-05-17T18:54:52.050Z,13.50
2023-05-17T18:57:20.263Z,13.40
2023-05-17T18:59:48.730Z,13.30
2023-05-17T19:02:18.461Z,13.10
2023-05-17T19:04:46.616Z,13.00
2023-05-17T19:07:14.736Z,12.90
2023-05-17T19:09:43.024Z,12.80
2023-05-17T19:12:12.575Z,12.70
2023-05-17T19:14:41.265Z,12.60
2023-05-17T19:17:10.734Z,12.50
2023-05-17T19:19:39.066Z,12.40
2023-05-17T19:22:07.267Z,12.20
2023-05-17T19:24:35.710Z,12.00
2023-05-17T19:27:04.072Z,11.80
2023-05-17T19:29:33.615Z,11.70
2023-05-17T19:32:01.761Z,11.60
2023-05-17T19:34:29.859Z,11.50
2023-05-17T19:36:58.721Z,11.40
2023-05-17T19:39:26.789Z,11.40
2023-05-17T19:41:55.116Z,11.30
2023-05-17T19:44:23.184Z,11.30
2023-05-17T19:46:52.762Z,11.20
2023-05-17T19:49:20.972Z,11.10
2023-05-17T19:51:49.898Z,11.00
2023-05-17T19:54:17.965Z,10.90
2023-05-17T19:56:46.269Z,10.70
2023-05-17T19:59:14.451Z,10.50
2023-05-17T20:01:42.616Z,10.40
2023-05-17T20:04:13.477Z,10.40
2023-05-17T20:06:41.860Z,10.30
2023-05-17T20:09:09.980Z,10.20
2023-05-17T20:11:38.127Z,10.00
2023-05-17T20:14:06.324Z,9.90
2023-05-17T20:16:34.471Z,9.80
2023-05-17T20:19:02.686Z,9.70
2023-05-17T20:21:32.331Z,9.60
2023-05-17T20:24:03.754Z,9.40
2023-05-17T20:26:36.353Z,9.20
2023-05-17T20:29:06.064Z,9.20
2023-05-17T20:31:34.249Z,9.20
2023-05-17T20:34:02.576Z,9.20
2023-05-17T20:36:32.363Z,9.20
2023-05-17T20:39:00.737Z,9.10
2023-05-17T20:41:28.818Z,8.80
2023-05-17T20:43:56.930Z,8.60
2023-05-17T20:46:25.350Z,8.40
2023-05-17T20:48:55.924Z,8.30
2023-05-17T20:51:24.117Z,8.10
2023-05-17T20:53:53.577Z,8.10
2023-05-17T20:56:21.711Z,8.00
2023-05-17T20:58:50.158Z,8.00
2023-05-17T21:01:18.859Z,7.80
2023-05-17T21:03:47.190Z,7.70
2023-05-17T21:06:15.499Z,7.70
2023-05-17T21:08:43.845Z,7.60
2023-05-17T21:11:18.724Z,7.70
2023-05-17T21:13:46.815Z,7.70
2023-05-17T21:16:14.943Z,7.70
2023-05-17T21:18:44.942Z,7.60
2023-05-17T21:21:13.837Z,7.50
2023-05-17T21:23:41.937Z,7.60
2023-05-17T21:26:11.863Z,7.60
2023-05-17T21:28:39.977Z,7.70
2023-05-17T21:31:08.300Z,7.60
2023-05-17T21:33:36.473Z,7.50
2023-05-17T21:36:05.060Z,7.40
2023-05-17T21:38:33.273Z,7.20
2023-05-17T21:41:01.343Z,7.10
2023-05-17T21:43:30.875Z,7.10
2023-05-17T21:45:58.988Z,7.00
2023-05-17T21:48:27.197Z,7.00
2023-05-17T21:50:55.626Z,7.00
2023-05-17T21:53:23.883Z,6.90
2023-05-17T21:58:24.925Z,6.70
2023-05-17T22:00:54.423Z,6.70
2023-05-17T22:03:22.667Z,6.60
2023-05-17T22:05:51.346Z,6.60
2023-05-17T22:08:19.501Z,6.60
2023-05-17T22:10:47.650Z,6.50
2023-05-17T22:13:18.101Z,6.40
2023-05-17T22:15:46.390Z,6.40
2023-05-17T22:18:15.883Z,6.40
2023-05-17T22:20:44.301Z,6.40
2023-05-17T22:23:12.509Z,6.40
2023-05-17T22:25:40.914Z,6.40
2023-05-17T22:28:09.036Z,6.50
2023-05-17T22:30:37.163Z,6.40
2023-05-17T22:33:05.332Z,6.40
2023-05-17T22:35:34.787Z,6.30
2023-05-17T22:38:03.423Z,6.40
2023-05-17T22:40:32.030Z,6.50
2023-05-17T22:43:01.360Z,6.60
2023-05-17T22:45:33.090Z,6.80
2023-05-17T22:48:02.929Z,6.90
2023-05-17T22:50:34.623Z,7.10
2023-05-17T22:53:05.994Z,7.20
2023-05-17T22:55:34.208Z,7.30
2023-05-17T22:58:02.337Z,7.40
2023-05-17T23:00:30.464Z,7.40
2023-05-17T23:03:00.282Z,7.40
2023-05-17T23:05:30.357Z,7.40
2023-05-17T23:08:01.094Z,7.30
2023-05-17T23:10:31.311Z,7.20
2023-05-17T23:12:59.412Z,7.00
2023-05-17T23:15:28.746Z,6.90
2023-05-17T23:17:59.616Z,6.80
2023-05-17T23:20:27.964Z,6.60
2023-05-17T23:22:56.199Z,6.40
2023-05-17T23:25:24.487Z,6.10
2023-05-17T23:27:54.076Z,5.80
2023-05-17T23:30:22.415Z,5.70
2023-05-17T23:32:52.211Z,5.50
2023-05-17T23:35:20.424Z,5.20
2023-05-17T23:37:48.549Z,5.10
2023-05-17T23:40:17.409Z,5.00
2023-05-17T23:42:46.076Z,4.90
2023-05-17T23:45:15.630Z,4.90
2023-05-17T23:47:44.430Z,4.80
2023-05-17T23:50:12.840Z,4.90
2023-05-17T23:52:41.049Z,4.80
2023-05-17T23:55:10.453Z,4.70
2023-05-17T23:57:39.186Z,4.70
